createdAt,value
2022-12-09T00:00:06.816Z,38.87
2022-12-09T00:05:10.099Z,32.17
2022-12-09T00:10:12.910Z,33.53
2022-12-09T00:15:15.521Z,37.13
2022-12-09T00:20:17.994Z,34.17
2022-12-09T00:25:20.354Z,22.77
2022-12-09T00:30:22.974Z,18.17
2022-12-09T00:35:25.449Z,15.93
2022-12-09T00:40:28.654Z,17.30
2022-12-09T00:45:31.223Z,17.87
2022-12-09T00:50:33.638Z,18.57
2022-12-09T00:55:36.114Z,15.30
2022-12-09T01:00:39.267Z,16.93
2022-12-09T01:05:42.876Z,17.00
2022-12-09T01:10:47.514Z,18.23
2022-12-09T01:15:50.126Z,16.13
2022-12-09T01:20:59.838Z,16.80
2022-12-09T01:26:07.381Z,16.07
2022-12-09T01:31:15.812Z,18.63
2022-12-09T01:36:22.285Z,17.97
2022-12-09T01:41:25.150Z,17.60
2022-12-09T01:46:27.705Z,18.83
2022-12-09T01:51:30.991Z,12.77
2022-12-09T01:56:36.143Z,19.50
2022-12-09T02:01:41.235Z,17.17
2022-12-09T02:06:44.184Z,17.73
2022-12-09T02:12:10.016Z,18.03
2022-12-09T02:17:35.384Z,15.97
2022-12-09T02:22:45.222Z,20.63
2022-12-09T02:28:05.709Z,17.90
2022-12-09T02:33:23.765Z,19.53
2022-12-09T02:38:28.956Z,23.73
2022-12-09T02:43:37.471Z,22.97
2022-12-09T02:48:45.854Z,26.03
2022-12-09T02:53:54.169Z,22.37
2022-12-09T02:58:57.495Z,23.30
2022-12-09T03:04:03.909Z,28.00
2022-12-09T03:09:13.868Z,25.20
2022-12-09T03:14:24.132Z,24.53
2022-12-09T03:19:36.887Z,29.73
2022-12-09T03:24:47.346Z,22.17
2022-12-09T03:29:51.028Z,27.37
2022-12-09T03:35:01.720Z,22.73
2022-12-09T03:40:13.659Z,26.27
2022-12-09T03:45:19.744Z,27.50
2022-12-09T03:50:25.162Z,22.03
2022-12-09T03:55:39.109Z,22.13
2022-12-09T04:00:41.755Z,24.37
2022-12-09T04:05:44.553Z,22.53
2022-12-09T04:10:47.044Z,19.63
2022-12-09T04:15:49.780Z,21.70
2022-12-09T04:20:52.391Z,24.17
2022-12-09T04:25:54.856Z,25.10
2022-12-09T04:30:58.088Z,26.23
2022-12-09T04:36:08.714Z,21.43
2022-12-09T04:41:12.570Z,21.67
2022-12-09T04:46:18.243Z,18.23
2022-12-09T04:51:21.109Z,24.83
2022-12-09T04:56:23.786Z,24.90
2022-12-09T05:01:30.568Z,24.03
2022-12-09T05:06:34.587Z,36.83
2022-12-09T05:11:37.610Z,53.07
2022-12-09T05:16:40.625Z,29.53
2022-12-09T05:21:44.067Z,36.20
2022-12-09T05:26:47.353Z,45.80
2022-12-09T05:31:51.731Z,59.60
2022-12-09T05:36:54.831Z,66.17
2022-12-09T05:41:57.641Z,70.63
2022-12-09T05:47:00.241Z,63.07
2022-12-09T05:52:03.292Z,54.77
2022-12-09T05:57:06.557Z,61.20
2022-12-09T06:02:10.419Z,59.83
2022-12-09T06:07:13.535Z,76.33
2022-12-09T06:12:16.963Z,105.87
2022-12-09T06:17:20.791Z,40.10
2022-12-09T06:22:23.576Z,96.13
2022-12-09T06:27:26.432Z,83.23
2022-12-09T06:32:30.813Z,88.07
2022-12-09T06:37:33.834Z,75.37
2022-12-09T06:42:38.278Z,43.23
2022-12-09T06:47:41.340Z,43.67
2022-12-09T06:52:44.200Z,28.00
2022-12-09T06:57:47.459Z,32.43
2022-12-09T07:02:50.392Z,69.80
2022-12-09T07:07:53.328Z,45.07
2022-12-09T07:12:56.301Z,37.97
2022-12-09T07:17:58.836Z,43.77
2022-12-09T07:23:01.751Z,50.77
2022-12-09T07:28:04.337Z,27.93
2022-12-09T07:33:07.120Z,42.23
2022-12-09T07:38:09.782Z,19.83
2022-12-09T07:43:12.274Z,32.33
2022-12-09T07:48:15.182Z,36.80
2022-12-09T07:53:17.719Z,35.60
2022-12-09T07:58:20.393Z,30.27
2022-12-09T08:03:23.092Z,31.53
2022-12-09T08:08:25.876Z,27.33
2022-12-09T08:13:29.192Z,26.17
2022-12-09T08:18:33.361Z,20.87
2022-12-09T08:23:36.669Z,22.17
2022-12-09T08:28:39.607Z,23.30
2022-12-09T08:33:42.758Z,22.83
2022-12-09T08:38:46.323Z,20.07
2022-12-09T08:43:49.288Z,24.93
2022-12-09T08:48:52.016Z,24.27
2022-12-09T08:53:54.734Z,26.10
2022-12-09T08:58:57.958Z,34.20
2022-12-09T09:04:02.756Z,26.53
2022-12-09T09:09:07.792Z,32.27
2022-12-09T09:14:12.481Z,24.63
2022-12-09T09:19:17.796Z,31.43
2022-12-09T09:24:23.704Z,27.47
2022-12-09T09:29:26.386Z,23.17
2022-12-09T09:34:29.223Z,23.80
2022-12-09T09:39:32.260Z,18.93
2022-12-09T09:44:40.125Z,20.50
2022-12-09T09:49:58.763Z,16.97
2022-12-09T09:55:24.042Z,20.67
2022-12-09T10:00:37.368Z,18.10
2022-12-09T10:06:11.651Z,22.33
2022-12-09T10:11:27.079Z,21.60
2022-12-09T10:16:35.866Z,18.97
2022-12-09T10:21:44.572Z,28.03
2022-12-09T10:27:12.581Z,26.47
2022-12-09T10:32:19.589Z,27.43
2022-12-09T10:37:32.937Z,27.17
2022-12-09T10:43:09.428Z,25.57
2022-12-09T10:48:40.321Z,33.13
2022-12-09T10:54:08.323Z,41.43
2022-12-09T10:59:25.772Z,46.50
2022-12-09T11:04:34.005Z,48.27
2022-12-09T11:09:40.468Z,43.43
2022-12-09T11:14:56.949Z,58.47
2022-12-09T11:20:05.786Z,54.70
2022-12-09T11:25:15.906Z,51.80
2022-12-09T11:30:22.485Z,33.50
2022-12-09T11:35:40.019Z,53.73
2022-12-09T11:40:43.668Z,56.43
2022-12-09T11:45:46.152Z,67.37
2022-12-09T11:50:51.825Z,64.33
2022-12-09T11:56:16.673Z,54.70
2022-12-09T12:01:37.242Z,64.87
2022-12-09T12:06:50.793Z,59.30
2022-12-09T12:12:07.263Z,71.33
2022-12-09T12:17:25.877Z,52.27
2022-12-09T12:22:51.527Z,48.70
2022-12-09T12:27:59.935Z,64.13
2022-12-09T12:39:21.045Z,61.43
2022-12-09T12:45:17.852Z,49.90
2022-12-09T12:50:28.566Z,56.27
2022-12-09T12:55:42.730Z,56.30
2022-12-09T13:01:04.567Z,52.53
2022-12-09T13:06:12.430Z,49.53
2022-12-09T13:11:19.996Z,52.03
2022-12-09T13:16:30.355Z,49.00
2022-12-09T13:21:32.942Z,48.47
2022-12-09T13:26:53.876Z,47.50
2022-12-09T13:43:04.037Z,42.90
2022-12-09T13:48:14.830Z,53.13
2022-12-09T13:53:19.150Z,25.03
2022-12-09T13:58:49.173Z,33.90
2022-12-09T14:04:10.313Z,28.80
2022-12-09T14:09:18.933Z,28.90
2022-12-09T14:14:25.494Z,25.57
2022-12-09T14:19:29.428Z,26.20
2022-12-09T14:24:32.508Z,23.93
2022-12-09T14:29:48.863Z,28.70
2022-12-09T14:35:04.477Z,32.27
2022-12-09T14:40:15.875Z,40.47
2022-12-09T14:45:57.891Z,39.03
2022-12-09T14:51:34.752Z,47.03
2022-12-09T14:56:37.962Z,29.13
2022-12-09T15:01:53.052Z,40.93
2022-12-09T15:07:11.892Z,39.53
2022-12-09T15:12:14.299Z,61.00
2022-12-09T15:17:27.534Z,69.70
2022-12-09T15:22:32.552Z,55.03
2022-12-09T15:27:34.987Z,49.37
2022-12-09T15:32:40.474Z,55.17
2022-12-09T15:37:43.426Z,44.93
2022-12-09T15:42:50.403Z,52.33
2022-12-09T15:48:11.258Z,47.50
2022-12-09T15:53:45.014Z,32.73
2022-12-09T15:58:54.595Z,28.90
2022-12-09T16:03:59.529Z,35.23
2022-12-09T16:09:02.836Z,28.60
2022-12-09T16:14:05.558Z,27.77
2022-12-09T16:19:25.362Z,27.10
2022-12-09T16:24:44.545Z,26.57
2022-12-09T16:29:54.009Z,28.27
2022-12-09T16:34:59.479Z,28.37
2022-12-09T16:40:21.036Z,34.00
2022-12-09T16:45:34.114Z,24.07
2022-12-09T16:50:43.043Z,31.57
2022-12-09T16:55:54.072Z,33.10
2022-12-09T17:00:57.953Z,30.80
2022-12-09T17:06:01.067Z,24.73
2022-12-09T17:11:03.547Z,27.37
2022-12-09T17:16:07.243Z,27.27
2022-12-09T17:21:12.472Z,19.33
2022-12-09T17:26:17.598Z,26.10
2022-12-09T17:31:23.210Z,18.47
2022-12-09T17:36:25.675Z,24.27
2022-12-09T17:41:28.068Z,24.37
2022-12-09T17:46:30.698Z,24.97
2022-12-09T17:51:36.291Z,23.57
2022-12-09T17:56:39.263Z,30.00
2022-12-09T18:01:43.978Z,26.93
2022-12-09T18:06:46.937Z,23.17
2022-12-09T18:11:51.666Z,22.27
2022-12-09T18:16:54.271Z,22.27
2022-12-09T18:21:57.209Z,28.87
2022-12-09T18:27:00.264Z,27.70
2022-12-09T18:32:02.766Z,26.13
2022-12-09T18:37:05.282Z,29.17
2022-12-09T18:42:08.730Z,29.37
2022-12-09T18:47:11.095Z,30.37
2022-12-09T18:52:13.518Z,30.40
2022-12-09T18:57:15.960Z,23.53
2022-12-09T19:02:18.681Z,53.33
2022-12-09T19:07:21.077Z,32.70
2022-12-09T19:12:46.394Z,37.27
2022-12-09T19:17:47.232Z,27.17
2022-12-09T19:22:49.557Z,27.97
2022-12-09T19:27:52.102Z,42.03
2022-12-09T19:32:54.446Z,37.50
2022-12-09T19:38:01.218Z,38.87
2022-12-09T19:43:04.150Z,41.10
2022-12-09T19:48:07.134Z,39.60
2022-12-09T19:53:09.582Z,40.03
2022-12-09T19:58:13.006Z,41.80
2022-12-09T20:03:15.443Z,43.03
2022-12-09T20:08:18.333Z,37.70
2022-12-09T20:13:20.834Z,45.57
2022-12-09T20:18:23.251Z,51.20
2022-12-09T20:23:25.658Z,54.37
2022-12-09T20:28:30.411Z,51.60
2022-12-09T20:33:33.414Z,49.47
2022-12-09T20:38:36.211Z,57.60
2022-12-09T20:43:45.438Z,60.47
2022-12-09T20:48:48.421Z,53.60
2022-12-09T20:53:51.469Z,58.33
2022-12-09T20:58:54.990Z,58.37
2022-12-09T21:03:59.132Z,50.63
2022-12-09T21:09:04.175Z,58.20
2022-12-09T21:14:07.668Z,65.97
2022-12-09T21:19:15.258Z,66.23
2022-12-09T21:24:18.825Z,62.33
2022-12-09T21:29:21.506Z,60.50
2022-12-09T21:34:25.269Z,54.90
2022-12-09T21:39:28.320Z,51.10
2022-12-09T21:44:30.724Z,65.00
2022-12-09T21:49:33.525Z,54.87
2022-12-09T21:54:36.302Z,66.20
2022-12-09T21:59:38.653Z,64.00
2022-12-09T22:04:41.560Z,60.13
2022-12-09T22:09:44.115Z,42.80
2022-12-09T22:14:46.564Z,78.07
2022-12-09T22:20:01.114Z,49.93
2022-12-09T22:25:11.668Z,62.23
2022-12-09T22:30:14.265Z,58.37
2022-12-09T22:35:16.629Z,78.57
2022-12-09T22:40:19.997Z,78.23
2022-12-09T22:45:22.382Z,74.03
2022-12-09T22:50:24.822Z,71.53
2022-12-09T22:55:27.232Z,75.53
2022-12-09T23:00:29.761Z,72.70
2022-12-09T23:05:36.839Z,69.80
2022-12-09T23:10:39.848Z,67.87
2022-12-09T23:15:42.363Z,69.80
2022-12-09T23:20:44.863Z,71.63
2022-12-09T23:25:47.314Z,74.70
2022-12-09T23:30:49.663Z,76.03
2022-12-09T23:35:52.133Z,68.37
2022-12-09T23:40:54.575Z,66.97
2022-12-09T23:46:04.140Z,64.67
2022-12-09T23:51:13.888Z,72.97
2022-12-09T23:56:21.685Z,67.03
